sensor_id;sensor_type;location;lat;lon;timestamp;P1;durP1;ratioP1;P2;durP2;ratioP2
54865;SDS011;40754;52.094;4.328;2023-02-16T00:00:47;66.80;;;38.28;;
54865;SDS011;40754;52.094;4.328;2023-02-16T00:03:21;60.60;;;37.17;;
54865;SDS011;40754;52.094;4.328;2023-02-16T00:05:47;66.43;;;38.10;;
54865;SDS011;40754;52.094;4.328;2023-02-16T00:08:14;66.97;;;38.85;;
54865;SDS011;40754;52.094;4.328;2023-02-16T00:10:39;67.75;;;38.97;;
54865;SDS011;40754;52.094;4.328;2023-02-16T00:13:14;69.82;;;37.63;;
54865;SDS011;40754;52.094;4.328;2023-02-16T00:16:06;67.07;;;37.78;;
54865;SDS011;40754;52.094;4.328;2023-02-16T00:18:38;66.32;;;38.78;;
54865;SDS011;40754;52.094;4.328;2023-02-16T00:21:04;71.10;;;38.63;;
54865;SDS011;40754;52.094;4.328;2023-02-16T00:23:29;70.30;;;38.38;;
54865;SDS011;40754;52.094;4.328;2023-02-16T00:25:55;65.13;;;38.03;;
54865;SDS011;40754;52.094;4.328;2023-02-16T00:28:21;64.85;;;38.72;;
54865;SDS011;40754;52.094;4.328;2023-02-16T00:30:46;68.85;;;39.17;;
54865;SDS011;40754;52.094;4.328;2023-02-16T00:33:18;65.07;;;39.03;;
54865;SDS011;40754;52.094;4.328;2023-02-16T00:35:44;67.03;;;39.70;;
54865;SDS011;40754;52.094;4.328;2023-02-16T00:38:10;73.00;;;39.15;;
54865;SDS011;40754;52.094;4.328;2023-02-16T00:40:36;63.53;;;38.65;;
54865;SDS011;40754;52.094;4.328;2023-02-16T00:43:03;66.35;;;39.83;;
54865;SDS011;40754;52.094;4.328;2023-02-16T00:45:28;68.50;;;41.10;;
54865;SDS011;40754;52.094;4.328;2023-02-16T00:47:55;63.83;;;38.38;;
54865;SDS011;40754;52.094;4.328;2023-02-16T00:50:31;70.72;;;40.88;;
54865;SDS011;40754;52.094;4.328;2023-02-16T00:52:57;67.95;;;38.55;;
54865;SDS011;40754;52.094;4.328;2023-02-16T00:55:25;69.60;;;38.65;;
54865;SDS011;40754;52.094;4.328;2023-02-16T01:00:27;68.30;;;40.70;;
54865;SDS011;40754;52.094;4.328;2023-02-16T01:03:02;73.03;;;41.30;;
54865;SDS011;40754;52.094;4.328;2023-02-16T01:05:30;73.35;;;39.10;;
54865;SDS011;40754;52.094;4.328;2023-02-16T01:07:56;70.72;;;40.67;;
54865;SDS011;40754;52.094;4.328;2023-02-16T01:10:40;72.47;;;38.65;;
54865;SDS011;40754;52.094;4.328;2023-02-16T01:13:25;76.93;;;38.80;;
54865;SDS011;40754;52.094;4.328;2023-02-16T01:15:52;70.78;;;40.67;;
54865;SDS011;40754;52.094;4.328;2023-02-16T01:18:21;68.82;;;39.30;;
54865;SDS011;40754;52.094;4.328;2023-02-16T01:20:47;68.85;;;39.00;;
54865;SDS011;40754;52.094;4.328;2023-02-16T01:23:13;68.53;;;38.60;;
54865;SDS011;40754;52.094;4.328;2023-02-16T01:25:39;68.60;;;41.58;;
54865;SDS011;40754;52.094;4.328;2023-02-16T01:28:24;70.72;;;40.67;;
54865;SDS011;40754;52.094;4.328;2023-02-16T01:30:50;68.80;;;40.40;;
54865;SDS011;40754;52.094;4.328;2023-02-16T01:33:17;69.47;;;39.72;;
54865;SDS011;40754;52.094;4.328;2023-02-16T01:35:43;70.05;;;41.25;;
54865;SDS011;40754;52.094;4.328;2023-02-16T01:38:42;68.13;;;40.13;;
54865;SDS011;40754;52.094;4.328;2023-02-16T01:41:08;71.00;;;40.45;;
54865;SDS011;40754;52.094;4.328;2023-02-16T01:44:07;73.90;;;41.05;;
54865;SDS011;40754;52.094;4.328;2023-02-16T01:49:18;74.00;;;41.53;;
54865;SDS011;40754;52.094;4.328;2023-02-16T01:51:52;67.22;;;39.60;;
54865;SDS011;40754;52.094;4.328;2023-02-16T02:02:11;68.80;;;38.25;;
54865;SDS011;40754;52.094;4.328;2023-02-16T02:04:43;70.10;;;39.78;;
54865;SDS011;40754;52.094;4.328;2023-02-16T02:10:18;68.53;;;39.30;;
54865;SDS011;40754;52.094;4.328;2023-02-16T02:12:52;68.00;;;40.65;;
54865;SDS011;40754;52.094;4.328;2023-02-16T02:15:22;64.30;;;39.88;;
54865;SDS011;40754;52.094;4.328;2023-02-16T02:17:50;69.45;;;41.55;;
54865;SDS011;40754;52.094;4.328;2023-02-16T02:20:29;75.97;;;41.47;;
54865;SDS011;40754;52.094;4.328;2023-02-16T02:23:53;68.45;;;39.17;;
54865;SDS011;40754;52.094;4.328;2023-02-16T02:34:40;66.65;;;39.63;;
54865;SDS011;40754;52.094;4.328;2023-02-16T02:45:35;65.57;;;38.53;;
54865;SDS011;40754;52.094;4.328;2023-02-16T02:48:05;69.60;;;40.63;;
54865;SDS011;40754;52.094;4.328;2023-02-16T02:50:39;63.75;;;39.40;;
54865;SDS011;40754;52.094;4.328;2023-02-16T02:53:11;68.07;;;40.67;;
54865;SDS011;40754;52.094;4.328;2023-02-16T02:55:38;67.53;;;39.88;;
54865;SDS011;40754;52.094;4.328;2023-02-16T02:58:28;70.20;;;40.65;;
54865;SDS011;40754;52.094;4.328;2023-02-16T03:01:16;66.20;;;38.00;;
54865;SDS011;40754;52.094;4.328;2023-02-16T03:03:47;73.90;;;39.45;;
54865;SDS011;40754;52.094;4.328;2023-02-16T03:06:19;64.28;;;40.33;;
54865;SDS011;40754;52.094;4.328;2023-02-16T03:08:49;68.38;;;40.00;;
54865;SDS011;40754;52.094;4.328;2023-02-16T03:11:22;63.97;;;38.70;;
54865;SDS011;40754;52.094;4.328;2023-02-16T03:16:50;64.18;;;39.00;;
54865;SDS011;40754;52.094;4.328;2023-02-16T03:19:37;69.20;;;40.30;;
54865;SDS011;40754;52.094;4.328;2023-02-16T03:22:22;62.47;;;38.22;;
54865;SDS011;40754;52.094;4.328;2023-02-16T03:25:07;66.40;;;38.22;;
54865;SDS011;40754;52.094;4.328;2023-02-16T03:27:51;63.97;;;38.40;;
54865;SDS011;40754;52.094;4.328;2023-02-16T03:30:36;63.58;;;37.53;;
54865;SDS011;40754;52.094;4.328;2023-02-16T03:33:02;64.35;;;38.33;;
54865;SDS011;40754;52.094;4.328;2023-02-16T03:35:28;62.10;;;38.38;;
54865;SDS011;40754;52.094;4.328;2023-02-16T03:37:54;65.10;;;38.40;;
54865;SDS011;40754;52.094;4.328;2023-02-16T03:40:19;66.82;;;36.78;;
54865;SDS011;40754;52.094;4.328;2023-02-16T03:42:59;64.13;;;38.35;;
54865;SDS011;40754;52.094;4.328;2023-02-16T03:45:29;59.03;;;36.38;;
54865;SDS011;40754;52.094;4.328;2023-02-16T03:47:55;64.03;;;36.90;;
54865;SDS011;40754;52.094;4.328;2023-02-16T03:50:21;65.32;;;36.65;;
54865;SDS011;40754;52.094;4.328;2023-02-16T03:52:47;61.30;;;35.67;;
54865;SDS011;40754;52.094;4.328;2023-02-16T03:55:13;64.47;;;38.33;;
54865;SDS011;40754;52.094;4.328;2023-02-16T03:57:39;61.67;;;36.60;;
54865;SDS011;40754;52.094;4.328;2023-02-16T04:00:05;59.33;;;36.55;;
54865;SDS011;40754;52.094;4.328;2023-02-16T04:02:31;56.35;;;36.25;;
54865;SDS011;40754;52.094;4.328;2023-02-16T04:04:57;62.38;;;36.97;;
54865;SDS011;40754;52.094;4.328;2023-02-16T04:07:23;62.78;;;36.55;;
54865;SDS011;40754;52.094;4.328;2023-02-16T04:09:49;55.17;;;34.47;;
54865;SDS011;40754;52.094;4.328;2023-02-16T04:12:15;57.97;;;36.10;;
54865;SDS011;40754;52.094;4.328;2023-02-16T04:17:24;55.95;;;34.25;;
54865;SDS011;40754;52.094;4.328;2023-02-16T04:19:50;56.20;;;35.25;;
54865;SDS011;40754;52.094;4.328;2023-02-16T04:22:15;62.78;;;35.30;;
54865;SDS011;40754;52.094;4.328;2023-02-16T04:24:41;60.25;;;35.15;;
54865;SDS011;40754;52.094;4.328;2023-02-16T04:27:10;56.30;;;35.25;;
54865;SDS011;40754;52.094;4.328;2023-02-16T04:29:36;58.55;;;35.08;;
54865;SDS011;40754;52.094;4.328;2023-02-16T04:32:01;56.45;;;34.78;;
54865;SDS011;40754;52.094;4.328;2023-02-16T04:34:27;61.28;;;35.72;;
54865;SDS011;40754;52.094;4.328;2023-02-16T04:36:53;59.85;;;35.58;;
54865;SDS011;40754;52.094;4.328;2023-02-16T04:39:19;60.15;;;35.55;;
54865;SDS011;40754;52.094;4.328;2023-02-16T04:41:45;60.25;;;35.53;;
54865;SDS011;40754;52.094;4.328;2023-02-16T04:44:11;62.38;;;35.55;;
54865;SDS011;40754;52.094;4.328;2023-02-16T04:46:37;58.30;;;34.30;;
54865;SDS011;40754;52.094;4.328;2023-02-16T04:49:04;61.47;;;34.65;;
54865;SDS011;40754;52.094;4.328;2023-02-16T04:51:29;57.42;;;35.28;;
54865;SDS011;40754;52.094;4.328;2023-02-16T04:53:55;59.47;;;35.25;;
54865;SDS011;40754;52.094;4.328;2023-02-16T04:56:20;59.30;;;35.10;;
54865;SDS011;40754;52.094;4.328;2023-02-16T04:58:47;59.67;;;35.75;;
54865;SDS011;40754;52.094;4.328;2023-02-16T05:01:19;64.03;;;37.40;;
54865;SDS011;40754;52.094;4.328;2023-02-16T05:03:46;57.03;;;33.70;;
54865;SDS011;40754;52.094;4.328;2023-02-16T05:06:12;61.30;;;35.47;;
54865;SDS011;40754;52.094;4.328;2023-02-16T05:08:38;60.47;;;36.17;;
54865;SDS011;40754;52.094;4.328;2023-02-16T05:11:03;58.50;;;35.72;;
54865;SDS011;40754;52.094;4.328;2023-02-16T05:13:48;63.08;;;36.00;;
54865;SDS011;40754;52.094;4.328;2023-02-16T05:16:32;61.08;;;35.65;;
54865;SDS011;40754;52.094;4.328;2023-02-16T05:18:58;60.63;;;36.08;;
54865;SDS011;40754;52.094;4.328;2023-02-16T05:21:24;62.58;;;36.03;;
54865;SDS011;40754;52.094;4.328;2023-02-16T05:23:56;59.40;;;35.50;;
54865;SDS011;40754;52.094;4.328;2023-02-16T05:26:22;53.60;;;34.60;;
54865;SDS011;40754;52.094;4.328;2023-02-16T05:28:48;58.13;;;35.25;;
54865;SDS011;40754;52.094;4.328;2023-02-16T05:31:14;58.30;;;35.55;;
54865;SDS011;40754;52.094;4.328;2023-02-16T05:33:40;57.30;;;35.17;;
54865;SDS011;40754;52.094;4.328;2023-02-16T05:36:06;57.17;;;34.97;;
54865;SDS011;40754;52.094;4.328;2023-02-16T05:38:32;59.42;;;34.47;;
54865;SDS011;40754;52.094;4.328;2023-02-16T05:40:58;60.47;;;36.70;;
54865;SDS011;40754;52.094;4.328;2023-02-16T05:43:24;56.88;;;34.83;;
54865;SDS011;40754;52.094;4.328;2023-02-16T05:45:50;57.00;;;34.47;;
54865;SDS011;40754;52.094;4.328;2023-02-16T05:48:15;60.63;;;36.45;;
54865;SDS011;40754;52.094;4.328;2023-02-16T05:50:41;57.60;;;36.20;;
54865;SDS011;40754;52.094;4.328;2023-02-16T05:53:08;61.83;;;36.00;;
54865;SDS011;40754;52.094;4.328;2023-02-16T05:55:34;59.72;;;36.53;;
54865;SDS011;40754;52.094;4.328;2023-02-16T05:57:59;56.03;;;34.75;;
54865;SDS011;40754;52.094;4.328;2023-02-16T06:00:25;58.85;;;35.03;;
54865;SDS011;40754;52.094;4.328;2023-02-16T06:02:51;60.67;;;35.03;;
54865;SDS011;40754;52.094;4.328;2023-02-16T06:05:17;58.55;;;34.78;;
54865;SDS011;40754;52.094;4.328;2023-02-16T06:07:42;58.85;;;36.00;;
54865;SDS011;40754;52.094;4.328;2023-02-16T06:10:09;58.78;;;34.92;;
54865;SDS011;40754;52.094;4.328;2023-02-16T06:12:35;57.63;;;34.95;;
54865;SDS011;40754;52.094;4.328;2023-02-16T06:15:01;57.97;;;34.60;;
54865;SDS011;40754;52.094;4.328;2023-02-16T06:17:28;59.05;;;36.17;;
54865;SDS011;40754;52.094;4.328;2023-02-16T06:19:53;59.50;;;35.28;;
54865;SDS011;40754;52.094;4.328;2023-02-16T06:22:19;57.40;;;34.20;;
54865;SDS011;40754;52.094;4.328;2023-02-16T06:24:45;55.95;;;34.67;;
54865;SDS011;40754;52.094;4.328;2023-02-16T06:27:11;58.55;;;34.97;;
54865;SDS011;40754;52.094;4.328;2023-02-16T06:29:37;63.60;;;36.40;;
54865;SDS011;40754;52.094;4.328;2023-02-16T06:32:02;59.05;;;35.15;;
54865;SDS011;40754;52.094;4.328;2023-02-16T06:34:28;57.60;;;35.63;;
54865;SDS011;40754;52.094;4.328;2023-02-16T06:36:55;64.25;;;35.65;;
54865;SDS011;40754;52.094;4.328;2023-02-16T06:39:20;60.13;;;36.08;;
54865;SDS011;40754;52.094;4.328;2023-02-16T06:41:47;63.45;;;35.00;;
54865;SDS011;40754;52.094;4.328;2023-02-16T06:44:13;60.42;;;35.83;;
54865;SDS011;40754;52.094;4.328;2023-02-16T06:46:40;57.55;;;35.42;;
54865;SDS011;40754;52.094;4.328;2023-02-16T06:49:13;58.85;;;34.70;;
54865;SDS011;40754;52.094;4.328;2023-02-16T06:51:43;63.80;;;35.20;;
54865;SDS011;40754;52.094;4.328;2023-02-16T06:54:09;62.65;;;35.33;;
54865;SDS011;40754;52.094;4.328;2023-02-16T06:56:35;59.80;;;36.78;;
54865;SDS011;40754;52.094;4.328;2023-02-16T06:59:01;62.72;;;36.80;;
54865;SDS011;40754;52.094;4.328;2023-02-16T07:01:27;60.25;;;35.70;;
54865;SDS011;40754;52.094;4.328;2023-02-16T07:03:54;61.00;;;35.97;;
54865;SDS011;40754;52.094;4.328;2023-02-16T07:06:25;56.97;;;34.95;;
54865;SDS011;40754;52.094;4.328;2023-02-16T07:08:52;55.20;;;34.17;;
54865;SDS011;40754;52.094;4.328;2023-02-16T07:11:18;64.50;;;35.10;;
54865;SDS011;40754;52.094;4.328;2023-02-16T07:13:45;61.38;;;35.78;;
54865;SDS011;40754;52.094;4.328;2023-02-16T07:16:11;66.28;;;35.55;;
54865;SDS011;40754;52.094;4.328;2023-02-16T07:18:37;61.20;;;35.78;;
54865;SDS011;40754;52.094;4.328;2023-02-16T07:21:03;57.03;;;34.33;;
54865;SDS011;40754;52.094;4.328;2023-02-16T07:23:30;58.30;;;34.78;;
54865;SDS011;40754;52.094;4.328;2023-02-16T07:26:00;56.25;;;35.25;;
54865;SDS011;40754;52.094;4.328;2023-02-16T07:28:26;61.20;;;35.17;;
54865;SDS011;40754;52.094;4.328;2023-02-16T07:30:51;58.15;;;35.70;;
54865;SDS011;40754;52.094;4.328;2023-02-16T07:33:17;58.25;;;35.83;;
54865;SDS011;40754;52.094;4.328;2023-02-16T07:35:46;60.28;;;36.42;;
54865;SDS011;40754;52.094;4.328;2023-02-16T07:38:12;60.42;;;35.90;;
54865;SDS011;40754;52.094;4.328;2023-02-16T07:40:40;57.22;;;34.72;;
54865;SDS011;40754;52.094;4.328;2023-02-16T07:43:06;59.28;;;36.85;;
54865;SDS011;40754;52.094;4.328;2023-02-16T07:45:32;61.05;;;36.70;;
54865;SDS011;40754;52.094;4.328;2023-02-16T07:47:58;59.35;;;35.63;;
54865;SDS011;40754;52.094;4.328;2023-02-16T07:50:24;59.03;;;35.85;;
54865;SDS011;40754;52.094;4.328;2023-02-16T07:52:50;65.68;;;35.75;;
54865;SDS011;40754;52.094;4.328;2023-02-16T07:55:18;62.45;;;36.95;;
54865;SDS011;40754;52.094;4.328;2023-02-16T07:57:44;65.57;;;37.67;;
54865;SDS011;40754;52.094;4.328;2023-02-16T08:00:10;59.50;;;37.25;;
54865;SDS011;40754;52.094;4.328;2023-02-16T08:02:36;66.13;;;39.53;;
54865;SDS011;40754;52.094;4.328;2023-02-16T08:05:02;61.20;;;37.45;;
54865;SDS011;40754;52.094;4.328;2023-02-16T08:07:32;63.92;;;37.90;;
54865;SDS011;40754;52.094;4.328;2023-02-16T08:09:58;66.30;;;37.55;;
54865;SDS011;40754;52.094;4.328;2023-02-16T08:12:25;65.70;;;38.17;;
54865;SDS011;40754;52.094;4.328;2023-02-16T08:14:50;68.18;;;41.33;;
54865;SDS011;40754;52.094;4.328;2023-02-16T08:17:15;66.85;;;40.67;;
54865;SDS011;40754;52.094;4.328;2023-02-16T08:19:41;68.50;;;40.20;;
54865;SDS011;40754;52.094;4.328;2023-02-16T08:22:07;68.72;;;41.03;;
54865;SDS011;40754;52.094;4.328;2023-02-16T08:24:33;76.63;;;41.20;;
54865;SDS011;40754;52.094;4.328;2023-02-16T08:27:04;64.95;;;40.47;;
54865;SDS011;40754;52.094;4.328;2023-02-16T08:29:33;71.70;;;41.20;;
54865;SDS011;40754;52.094;4.328;2023-02-16T08:31:59;77.15;;;43.00;;
54865;SDS011;40754;52.094;4.328;2023-02-16T08:34:32;70.28;;;42.35;;
54865;SDS011;40754;52.094;4.328;2023-02-16T08:36:58;69.65;;;42.33;;
54865;SDS011;40754;52.094;4.328;2023-02-16T08:39:28;65.93;;;41.25;;
54865;SDS011;40754;52.094;4.328;2023-02-16T08:42:02;69.20;;;40.72;;
54865;SDS011;40754;52.094;4.328;2023-02-16T08:44:29;66.78;;;41.58;;
54865;SDS011;40754;52.094;4.328;2023-02-16T08:47:00;68.88;;;42.55;;
54865;SDS011;40754;52.094;4.328;2023-02-16T08:49:35;66.88;;;42.03;;
54865;SDS011;40754;52.094;4.328;2023-02-16T08:52:03;68.05;;;41.78;;
54865;SDS011;40754;52.094;4.328;2023-02-16T08:54:32;74.40;;;42.90;;
54865;SDS011;40754;52.094;4.328;2023-02-16T08:57:04;69.97;;;41.13;;
54865;SDS011;40754;52.094;4.328;2023-02-16T08:59:30;74.65;;;43.60;;
54865;SDS011;40754;52.094;4.328;2023-02-16T09:01:59;67.70;;;41.53;;
54865;SDS011;40754;52.094;4.328;2023-02-16T09:04:28;70.55;;;42.40;;
54865;SDS011;40754;52.094;4.328;2023-02-16T09:06:57;72.07;;;43.00;;
54865;SDS011;40754;52.094;4.328;2023-02-16T09:09:23;71.82;;;44.30;;
54865;SDS011;40754;52.094;4.328;2023-02-16T09:11:50;69.60;;;42.10;;
54865;SDS011;40754;52.094;4.328;2023-02-16T09:14:20;76.25;;;44.60;;
54865;SDS011;40754;52.094;4.328;2023-02-16T09:16:47;75.80;;;44.85;;
54865;SDS011;40754;52.094;4.328;2023-02-16T09:19:13;69.90;;;42.30;;
54865;SDS011;40754;52.094;4.328;2023-02-16T09:21:40;63.28;;;42.88;;
54865;SDS011;40754;52.094;4.328;2023-02-16T09:24:06;73.22;;;43.65;;
54865;SDS011;40754;52.094;4.328;2023-02-16T09:26:33;76.35;;;44.75;;
54865;SDS011;40754;52.094;4.328;2023-02-16T09:29:07;72.97;;;44.03;;
54865;SDS011;40754;52.094;4.328;2023-02-16T09:31:35;71.35;;;43.03;;
54865;SDS011;40754;52.094;4.328;2023-02-16T09:34:07;71.20;;;43.65;;
54865;SDS011;40754;52.094;4.328;2023-02-16T09:36:43;70.72;;;42.45;;
54865;SDS011;40754;52.094;4.328;2023-02-16T09:39:09;70.65;;;43.25;;
54865;SDS011;40754;52.094;4.328;2023-02-16T09:41:51;71.60;;;42.13;;
54865;SDS011;40754;52.094;4.328;2023-02-16T09:44:21;70.47;;;43.25;;
54865;SDS011;40754;52.094;4.328;2023-02-16T09:46:58;68.53;;;42.53;;
54865;SDS011;40754;52.094;4.328;2023-02-16T09:49:29;70.18;;;43.22;;
54865;SDS011;40754;52.094;4.328;2023-02-16T09:52:15;65.05;;;41.60;;
54865;SDS011;40754;52.094;4.328;2023-02-16T09:55:00;75.13;;;43.47;;
54865;SDS011;40754;52.094;4.328;2023-02-16T10:00:38;66.10;;;40.72;;
54865;SDS011;40754;52.094;4.328;2023-02-16T10:08:42;69.63;;;42.30;;
54865;SDS011;40754;52.094;4.328;2023-02-16T10:19:52;77.28;;;42.80;;
54865;SDS011;40754;52.094;4.328;2023-02-16T10:22:25;72.85;;;43.78;;
54865;SDS011;40754;52.094;4.328;2023-02-16T10:25:19;72.70;;;43.58;;
54865;SDS011;40754;52.094;4.328;2023-02-16T10:27:56;71.20;;;42.25;;
54865;SDS011;40754;52.094;4.328;2023-02-16T10:31:08;65.90;;;40.50;;
54865;SDS011;40754;52.094;4.328;2023-02-16T10:33:41;69.65;;;41.95;;
54865;SDS011;40754;52.094;4.328;2023-02-16T10:42:17;66.63;;;40.13;;
54865;SDS011;40754;52.094;4.328;2023-02-16T10:48:25;72.53;;;40.60;;
54865;SDS011;40754;52.094;4.328;2023-02-16T10:53:44;71.22;;;41.83;;
54865;SDS011;40754;52.094;4.328;2023-02-16T11:01:56;69.15;;;39.88;;
54865;SDS011;40754;52.094;4.328;2023-02-16T11:04:42;62.53;;;38.78;;
54865;SDS011;40754;52.094;4.328;2023-02-16T11:09:58;65.65;;;38.38;;
54865;SDS011;40754;52.094;4.328;2023-02-16T11:12:45;63.28;;;38.55;;
54865;SDS011;40754;52.094;4.328;2023-02-16T11:15:27;56.38;;;36.50;;
54865;SDS011;40754;52.094;4.328;2023-02-16T11:21:06;47.53;;;30.23;;
54865;SDS011;40754;52.094;4.328;2023-02-16T11:23:58;52.92;;;30.90;;
54865;SDS011;40754;52.094;4.328;2023-02-16T11:26:26;52.30;;;31.88;;
54865;SDS011;40754;52.094;4.328;2023-02-16T11:28:52;43.80;;;28.67;;
54865;SDS011;40754;52.094;4.328;2023-02-16T11:31:43;45.45;;;28.50;;
54865;SDS011;40754;52.094;4.328;2023-02-16T11:36:40;47.40;;;30.13;;
54865;SDS011;40754;52.094;4.328;2023-02-16T11:41:59;51.70;;;29.27;;
54865;SDS011;40754;52.094;4.328;2023-02-16T11:44:26;51.20;;;28.42;;
54865;SDS011;40754;52.094;4.328;2023-02-16T11:46:59;46.58;;;29.27;;
54865;SDS011;40754;52.094;4.328;2023-02-16T11:49:35;46.05;;;29.13;;
54865;SDS011;40754;52.094;4.328;2023-02-16T11:52:22;42.08;;;27.58;;
54865;SDS011;40754;52.094;4.328;2023-02-16T11:54:54;44.25;;;27.02;;
54865;SDS011;40754;52.094;4.328;2023-02-16T11:57:42;43.85;;;26.52;;
54865;SDS011;40754;52.094;4.328;2023-02-16T12:00:25;43.25;;;26.13;;
54865;SDS011;40754;52.094;4.328;2023-02-16T12:05:49;42.05;;;24.20;;
54865;SDS011;40754;52.094;4.328;2023-02-16T12:09:02;39.67;;;23.20;;
54865;SDS011;40754;52.094;4.328;2023-02-16T12:11:58;36.92;;;22.73;;
54865;SDS011;40754;52.094;4.328;2023-02-16T12:20:02;37.60;;;23.90;;
54865;SDS011;40754;52.094;4.328;2023-02-16T12:22:48;40.30;;;24.48;;
54865;SDS011;40754;52.094;4.328;2023-02-16T12:25:36;38.83;;;24.38;;
54865;SDS011;40754;52.094;4.328;2023-02-16T12:42:22;40.28;;;22.90;;
54865;SDS011;40754;52.094;4.328;2023-02-16T12:44:56;36.13;;;21.27;;
54865;SDS011;40754;52.094;4.328;2023-02-16T12:47:30;29.80;;;19.23;;
54865;SDS011;40754;52.094;4.328;2023-02-16T12:49:59;32.67;;;19.83;;
54865;SDS011;40754;52.094;4.328;2023-02-16T12:52:38;35.08;;;20.95;;
54865;SDS011;40754;52.094;4.328;2023-02-16T12:55:29;35.22;;;21.70;;
54865;SDS011;40754;52.094;4.328;2023-02-16T12:57:59;34.70;;;20.70;;
54865;SDS011;40754;52.094;4.328;2023-02-16T13:06:02;34.58;;;21.95;;
54865;SDS011;40754;52.094;4.328;2023-02-16T13:08:43;31.75;;;20.80;;
54865;SDS011;40754;52.094;4.328;2023-02-16T13:16:56;34.42;;;21.40;;
54865;SDS011;40754;52.094;4.328;2023-02-16T13:19:33;33.13;;;22.17;;
54865;SDS011;40754;52.094;4.328;2023-02-16T13:27:27;41.88;;;21.58;;
54865;SDS011;40754;52.094;4.328;2023-02-16T13:44:37;32.85;;;21.40;;
54865;SDS011;40754;52.094;4.328;2023-02-16T13:47:06;32.25;;;20.90;;
54865;SDS011;40754;52.094;4.328;2023-02-16T13:49:38;32.33;;;20.98;;
54865;SDS011;40754;52.094;4.328;2023-02-16T13:52:07;34.22;;;21.40;;
54865;SDS011;40754;52.094;4.328;2023-02-16T13:54:34;35.25;;;22.33;;
54865;SDS011;40754;52.094;4.328;2023-02-16T13:57:02;31.08;;;21.42;;
54865;SDS011;40754;52.094;4.328;2023-02-16T14:01:54;32.53;;;21.02;;
54865;SDS011;40754;52.094;4.328;2023-02-16T14:06:46;35.53;;;21.65;;
54865;SDS011;40754;52.094;4.328;2023-02-16T14:22:47;27.73;;;19.37;;
54865;SDS011;40754;52.094;4.328;2023-02-16T14:27:47;29.38;;;20.70;;
54865;SDS011;40754;52.094;4.328;2023-02-16T14:33:15;32.53;;;20.63;;
54865;SDS011;40754;52.094;4.328;2023-02-16T14:35:45;33.10;;;20.58;;
54865;SDS011;40754;52.094;4.328;2023-02-16T14:38:29;28.63;;;20.15;;
54865;SDS011;40754;52.094;4.328;2023-02-16T14:41:02;31.17;;;20.13;;
54865;SDS011;40754;52.094;4.328;2023-02-16T14:43:33;31.92;;;19.95;;
54865;SDS011;40754;52.094;4.328;2023-02-16T14:46:03;33.67;;;19.48;;
54865;SDS011;40754;52.094;4.328;2023-02-16T14:54:28;32.88;;;19.88;;
54865;SDS011;40754;52.094;4.328;2023-02-16T14:56:56;29.45;;;19.52;;
54865;SDS011;40754;52.094;4.328;2023-02-16T15:01:56;33.47;;;20.10;;
54865;SDS011;40754;52.094;4.328;2023-02-16T15:04:27;29.30;;;19.90;;
54865;SDS011;40754;52.094;4.328;2023-02-16T15:07:01;29.92;;;20.73;;
54865;SDS011;40754;52.094;4.328;2023-02-16T15:09:32;34.20;;;20.83;;
54865;SDS011;40754;52.094;4.328;2023-02-16T15:12:15;32.35;;;21.30;;
54865;SDS011;40754;52.094;4.328;2023-02-16T15:15:00;35.70;;;21.75;;
54865;SDS011;40754;52.094;4.328;2023-02-16T15:17:35;31.73;;;21.42;;
54865;SDS011;40754;52.094;4.328;2023-02-16T15:22:34;34.00;;;22.55;;
54865;SDS011;40754;52.094;4.328;2023-02-16T15:25:06;41.15;;;23.90;;
54865;SDS011;40754;52.094;4.328;2023-02-16T15:30:35;43.10;;;24.02;;
54865;SDS011;40754;52.094;4.328;2023-02-16T15:33:10;40.33;;;25.38;;
54865;SDS011;40754;52.094;4.328;2023-02-16T15:35:42;38.22;;;23.85;;
54865;SDS011;40754;52.094;4.328;2023-02-16T15:40:37;41.42;;;25.30;;
54865;SDS011;40754;52.094;4.328;2023-02-16T15:45:49;38.35;;;24.83;;
54865;SDS011;40754;52.094;4.328;2023-02-16T15:50:49;48.10;;;27.38;;
54865;SDS011;40754;52.094;4.328;2023-02-16T15:53:28;49.88;;;28.20;;
54865;SDS011;40754;52.094;4.328;2023-02-16T15:58:48;39.60;;;24.30;;
54865;SDS011;40754;52.094;4.328;2023-02-16T16:01:19;41.55;;;27.27;;
54865;SDS011;40754;52.094;4.328;2023-02-16T16:03:46;47.70;;;26.10;;
54865;SDS011;40754;52.094;4.328;2023-02-16T16:06:14;49.72;;;26.13;;
54865;SDS011;40754;52.094;4.328;2023-02-16T16:08:43;38.50;;;22.75;;
54865;SDS011;40754;52.094;4.328;2023-02-16T16:11:12;34.58;;;22.17;;
54865;SDS011;40754;52.094;4.328;2023-02-16T16:13:39;36.85;;;22.70;;
54865;SDS011;40754;52.094;4.328;2023-02-16T16:16:05;37.22;;;22.70;;
54865;SDS011;40754;52.094;4.328;2023-02-16T16:18:47;32.60;;;21.67;;
54865;SDS011;40754;52.094;4.328;2023-02-16T16:21:44;30.20;;;20.35;;
54865;SDS011;40754;52.094;4.328;2023-02-16T16:27:04;34.03;;;22.17;;
54865;SDS011;40754;52.094;4.328;2023-02-16T16:29:35;33.97;;;21.25;;
54865;SDS011;40754;52.094;4.328;2023-02-16T16:32:24;27.92;;;20.17;;
54865;SDS011;40754;52.094;4.328;2023-02-16T16:34:57;35.60;;;20.38;;
54865;SDS011;40754;52.094;4.328;2023-02-16T16:37:30;31.40;;;20.52;;
54865;SDS011;40754;52.094;4.328;2023-02-16T16:43:04;26.05;;;18.50;;
54865;SDS011;40754;52.094;4.328;2023-02-16T16:45:47;25.75;;;18.85;;
54865;SDS011;40754;52.094;4.328;2023-02-16T16:48:33;29.33;;;19.20;;
54865;SDS011;40754;52.094;4.328;2023-02-16T16:51:11;26.85;;;19.08;;
54865;SDS011;40754;52.094;4.328;2023-02-16T16:56:24;25.75;;;17.67;;
54865;SDS011;40754;52.094;4.328;2023-02-16T16:58:51;25.85;;;17.73;;
54865;SDS011;40754;52.094;4.328;2023-02-16T17:01:19;25.35;;;17.58;;
54865;SDS011;40754;52.094;4.328;2023-02-16T17:03:45;26.48;;;16.08;;
54865;SDS011;40754;52.094;4.328;2023-02-16T17:06:11;22.55;;;17.15;;
54865;SDS011;40754;52.094;4.328;2023-02-16T17:08:38;25.67;;;18.13;;
54865;SDS011;40754;52.094;4.328;2023-02-16T17:11:05;23.83;;;17.77;;
54865;SDS011;40754;52.094;4.328;2023-02-16T17:13:33;26.95;;;18.60;;
54865;SDS011;40754;52.094;4.328;2023-02-16T17:16:03;24.52;;;18.23;;
54865;SDS011;40754;52.094;4.328;2023-02-16T17:18:31;25.08;;;19.00;;
54865;SDS011;40754;52.094;4.328;2023-02-16T17:21:00;27.92;;;19.67;;
54865;SDS011;40754;52.094;4.328;2023-02-16T17:23:26;24.55;;;18.63;;
54865;SDS011;40754;52.094;4.328;2023-02-16T17:25:54;27.65;;;20.17;;
54865;SDS011;40754;52.094;4.328;2023-02-16T17:28:20;24.25;;;18.60;;
54865;SDS011;40754;52.094;4.328;2023-02-16T17:30:46;27.05;;;20.02;;
54865;SDS011;40754;52.094;4.328;2023-02-16T17:33:12;27.85;;;19.60;;
54865;SDS011;40754;52.094;4.328;2023-02-16T17:35:39;25.77;;;20.38;;
54865;SDS011;40754;52.094;4.328;2023-02-16T17:38:16;26.05;;;17.63;;
54865;SDS011;40754;52.094;4.328;2023-02-16T17:40:46;24.63;;;19.58;;
54865;SDS011;40754;52.094;4.328;2023-02-16T17:43:12;25.02;;;19.00;;
54865;SDS011;40754;52.094;4.328;2023-02-16T17:45:38;24.70;;;18.33;;
54865;SDS011;40754;52.094;4.328;2023-02-16T17:48:05;22.45;;;17.55;;
54865;SDS011;40754;52.094;4.328;2023-02-16T17:50:30;23.38;;;17.55;;
54865;SDS011;40754;52.094;4.328;2023-02-16T17:52:57;26.20;;;18.75;;
54865;SDS011;40754;52.094;4.328;2023-02-16T17:55:23;23.23;;;17.10;;
54865;SDS011;40754;52.094;4.328;2023-02-16T17:57:49;23.58;;;18.23;;